Time;durP1;ratioP1;P1;durP2;ratioP2;P2;SDS_P1;SDS_P2;PMS_P1;PMS_P2;Temp;Humidity;BMP_temperature;BMP_pressure;BME280_temperature;BME280_humidity;BME280_pressure;Samples;Min_cycle;Max_cycle;Signal;HPM_P1;HPM_P2
2021/12/03 00:01:19;;;;;;;1.67;1.13;;;3.90;54.30;;;2.10;59.78;100251.63;8275731;28;20041;-88
2021/12/03 00:05:41;;;;;;;3.35;1.23;;;3.90;54.30;;;2.16;59.48;100269.47;8286660;28;20101;-88
2021/12/03 00:10:07;;;;;;;1.45;1.13;;;3.90;54.30;;;2.06;59.68;100258.59;8293170;28;20564;-89
2021/12/03 00:14:29;;;;;;;1.60;1.40;;;3.90;54.30;;;2.12;59.63;100267.91;8299045;28;20132;-88
2021/12/03 00:18:50;;;;;;;3.03;1.10;;;3.80;54.30;;;2.07;59.90;100272.31;8292512;28;20136;-88
2021/12/03 00:23:13;;;;;;;1.65;1.23;;;3.90;54.30;;;2.00;59.84;100279.38;8278986;28;20407;-88
2021/12/03 00:27:35;;;;;;;1.80;1.08;;;3.80;54.30;;;2.03;59.75;100297.31;8283901;28;20594;-88
2021/12/03 00:31:57;;;;;;;2.45;1.10;;;3.80;54.30;;;2.02;59.55;100303.34;8299852;28;20136;-87
2021/12/03 00:36:18;;;;;;;2.97;1.20;;;3.80;54.30;;;1.97;59.75;100297.47;8296677;28;20137;-89
2021/12/03 00:40:41;;;;;;;3.63;1.17;;;3.70;54.30;;;1.92;59.86;100295.03;8277865;28;20137;-88
2021/12/03 00:45:05;;;;;;;1.17;1.08;;;3.70;54.30;;;1.86;59.69;100302.06;8283336;28;20125;-88
2021/12/03 00:49:27;;;;;;;2.35;1.20;;;3.70;54.30;;;1.92;59.79;100322.53;8294678;28;20132;-89
2021/12/03 00:53:50;;;;;;;1.30;1.20;;;3.70;54.30;;;1.72;59.59;100285.25;8271946;28;20109;-89
2021/12/03 00:58:11;;;;;;;2.88;1.10;;;3.70;54.30;;;1.83;59.65;100326.16;8292069;28;20128;-88
2021/12/03 01:02:33;;;;;;;2.35;1.20;;;3.60;54.30;;;1.77;59.82;100316.84;8311060;28;20561;-88
2021/12/03 01:06:55;;;;;;;3.63;1.23;;;3.60;54.30;;;1.78;59.92;100330.56;8284609;28;20124;-88
2021/12/03 01:11:17;;;;;;;2.40;1.02;;;3.60;54.40;;;1.65;59.56;100309.47;8271739;28;20137;-88
2021/12/03 01:15:41;;;;;;;1.05;0.98;;;3.50;54.40;;;1.67;60.04;100323.13;8299205;28;20125;-88
2021/12/03 01:20:06;;;;;;;0.80;0.80;;;3.50;54.40;;;1.70;59.82;100327.34;8287133;28;20132;-88
2021/12/03 01:24:28;;;;;;;1.00;1.00;;;3.50;54.40;;;1.70;59.81;100330.78;8299267;28;20132;-88
2021/12/03 01:28:50;;;;;;;0.90;0.90;;;3.50;54.40;;;1.69;60.05;100323.94;8290870;28;20470;-89
2021/12/03 01:33:12;;;;;;;0.82;0.80;;;3.50;54.40;;;1.71;60.12;100322.16;8301500;28;20136;-88
2021/12/03 01:37:34;;;;;;;1.23;0.95;;;3.40;54.40;;;1.68;59.87;100329.97;8290548;28;20124;-88
2021/12/03 01:41:57;;;;;;;2.47;1.13;;;3.50;54.40;;;1.69;59.78;100330.81;8284463;28;20050;-87
2021/12/03 01:46:20;;;;;;;1.38;0.88;;;3.50;54.40;;;1.66;59.80;100318.88;8293200;28;20474;-87
2021/12/03 01:50:44;;;;;;;1.95;1.50;;;3.40;54.40;;;1.66;59.77;100328.31;8303152;28;20483;-88
2021/12/03 01:55:11;;;;;;;1.80;1.15;;;3.30;54.30;;;1.64;59.90;100323.19;8314007;28;20132;-88
2021/12/03 01:59:32;;;;;;;1.25;1.15;;;3.40;54.40;;;1.60;59.70;100324.19;8312212;28;20484;-88
2021/12/03 02:03:58;;;;;;;2.63;1.17;;;3.40;54.40;;;1.59;59.74;100326.78;8270202;28;20058;-89
2021/12/03 02:08:20;;;;;;;2.05;1.20;;;3.40;54.40;;;1.51;59.89;100316.66;8314571;28;20466;-88
2021/12/03 02:12:42;;;;;;;2.05;1.30;;;3.30;54.40;;;1.51;59.83;100321.81;8296191;28;20597;-88
2021/12/03 02:17:04;;;;;;;2.25;1.30;;;3.40;54.40;;;1.44;59.86;100315.16;8299374;28;20136;-89
2021/12/03 02:21:26;;;;;;;0.93;0.90;;;3.30;54.40;;;1.43;60.10;100313.44;8292733;28;20055;-89
2021/12/03 02:25:49;;;;;;;1.05;1.02;;;3.30;54.50;;;1.39;60.19;100314.41;8303043;28;20113;-89
2021/12/03 02:30:11;;;;;;;2.22;1.70;;;3.20;54.50;;;1.42;60.12;100310.03;8298612;28;20480;-89
2021/12/03 02:34:34;;;;;;;2.92;1.40;;;3.30;54.50;;;1.42;59.99;100312.59;8289614;28;20128;-88
2021/12/03 02:38:55;;;;;;;3.13;1.60;;;3.20;54.50;;;1.39;60.04;100291.25;8292345;28;20124;-89
2021/12/03 02:43:18;;;;;;;3.03;1.33;;;3.20;54.60;;;1.35;60.17;100279.34;8295437;28;20121;-89
2021/12/03 02:47:40;;;;;;;2.10;1.33;;;3.20;54.60;;;1.38;60.24;100285.28;8294833;28;20124;-89
2021/12/03 02:52:02;;;;;;;1.67;1.17;;;3.20;54.70;;;1.31;59.86;100276.84;8278488;28;20124;-89
2021/12/03 02:56:24;;;;;;;4.35;1.20;;;3.20;54.70;;;1.32;60.16;100285.41;8308186;28;20132;-90
2021/12/03 03:00:49;;;;;;;1.52;1.15;;;3.20;54.80;;;1.29;59.92;100288.06;8267285;28;20583;-89
2021/12/03 03:05:13;;;;;;;6.00;1.77;;;3.00;54.70;;;1.37;59.96;100293.00;8269935;28;20120;-89
2021/12/03 03:09:35;;;;;;;4.50;1.15;;;3.20;54.90;;;1.30;60.14;100298.31;8289758;28;20153;-89
2021/12/03 03:13:57;;;;;;;1.50;1.13;;;3.10;54.90;;;1.29;60.14;100300.91;8287688;28;20209;-91
2021/12/03 03:18:25;;;;;;;3.28;1.42;;;3.20;55.00;;;1.31;60.26;100297.41;8268074;28;20141;-90
2021/12/03 03:22:48;;;;;;;3.75;1.30;;;3.20;55.00;;;1.35;60.24;100294.78;8288740;28;20157;-90
2021/12/03 03:27:10;;;;;;;2.20;1.35;;;3.10;54.90;;;1.38;60.19;100289.53;8297161;28;20132;-91
2021/12/03 03:31:34;;;;;;;3.38;1.30;;;3.20;55.00;;;1.35;60.28;100290.50;8288028;28;20132;-88
2021/12/03 03:35:56;;;;;;;2.63;1.38;;;3.20;55.00;;;1.43;60.30;100316.00;8297625;28;20135;-90
2021/12/03 03:40:18;;;;;;;3.03;1.40;;;3.20;55.00;;;1.40;60.37;100313.50;8287229;28;20133;-90
2021/12/03 03:44:40;;;;;;;1.63;1.30;;;3.20;55.00;;;1.40;60.47;100296.34;8265726;28;20137;-89
2021/12/03 03:49:02;;;;;;;1.95;1.73;;;3.30;55.00;;;1.45;60.42;100306.53;8295543;28;20121;-90
2021/12/03 03:53:23;;;;;;;1.40;0.88;;;3.30;55.00;;;1.49;60.30;100318.47;8266083;28;20489;-89
2021/12/03 03:57:47;;;;;;;1.60;1.33;;;3.30;55.00;;;1.46;60.17;100313.34;8291034;28;20609;-89
2021/12/03 04:02:09;;;;;;;2.35;1.30;;;3.30;54.90;;;1.41;60.38;100294.66;8262650;28;20516;-88
2021/12/03 04:06:31;;;;;;;2.50;1.33;;;3.30;54.90;;;1.42;60.33;100302.31;8289548;28;20149;-90
2021/12/03 04:10:52;;;;;;;2.33;1.40;;;3.30;54.90;;;1.37;60.30;100298.16;8280142;28;20136;-89
2021/12/03 04:15:15;;;;;;;3.50;1.40;;;3.30;54.90;;;1.39;60.47;100304.13;8279003;28;20128;-89
2021/12/03 04:19:37;;;;;;;3.78;1.85;;;3.30;54.90;;;1.38;60.39;100312.69;8303866;28;20478;-88
2021/12/03 04:23:59;;;;;;;5.18;1.67;;;3.20;54.90;;;1.43;60.68;100318.59;8285388;28;20140;-90
2021/12/03 04:28:21;;;;;;;2.85;1.70;;;3.20;54.90;;;1.39;60.39;100322.13;8273541;28;20459;-91
2021/12/03 04:32:44;;;;;;;4.63;1.25;;;3.30;55.00;;;1.37;60.16;100318.75;8301712;28;20132;-91
2021/12/03 04:37:06;;;;;;;3.35;1.50;;;3.20;54.90;;;1.32;60.60;100311.13;8287306;28;20132;-91
2021/12/03 04:41:27;;;;;;;3.22;1.70;;;3.20;54.90;;;1.42;60.17;100345.19;8290338;28;20141;-91
2021/12/03 04:45:50;;;;;;;1.95;1.42;;;3.30;55.00;;;1.40;60.40;100344.38;8285662;28;20128;-91
2021/12/03 04:50:13;;;;;;;3.47;1.90;;;3.20;55.00;;;1.42;60.55;100351.19;8291963;28;20129;-90
2021/12/03 04:54:35;;;;;;;2.08;1.88;;;3.20;55.00;;;1.36;60.59;100342.78;8286783;28;20140;-92
2021/12/03 04:58:57;;;;;;;3.47;2.00;;;3.20;55.10;;;1.41;60.46;100338.38;8294012;28;20201;-90
2021/12/03 05:03:23;;;;;;;4.35;2.58;;;3.30;55.10;;;1.45;60.27;100343.38;8283306;28;20132;-91
2021/12/03 05:07:57;;;;;;;3.55;2.38;;;3.30;55.10;;;1.45;60.54;100352.84;8261685;23;20137;-86
2021/12/03 05:12:19;;;;;;;3.42;2.28;;;3.20;55.10;;;1.46;60.29;100363.09;8277910;28;20133;-87
2021/12/03 05:16:41;;;;;;;2.00;1.50;;;3.20;55.10;;;1.50;60.57;100361.28;8275275;28;20133;-87
2021/12/03 05:21:04;;;;;;;3.42;1.40;;;3.30;55.10;;;1.42;60.59;100343.47;8231339;28;20069;-87
2021/12/03 05:25:27;;;;;;;3.90;1.35;;;3.30;55.10;;;1.38;60.57;100341.00;8246478;28;20122;-87
2021/12/03 05:29:49;;;;;;;2.08;1.50;;;3.30;55.10;;;1.39;60.57;100338.41;8233496;28;20045;-88
2021/12/03 05:34:13;;;;;;;1.27;1.17;;;3.20;55.00;;;1.46;60.75;100350.25;8245901;28;20831;-89
2021/12/03 05:38:35;;;;;;;3.97;1.00;;;3.20;55.00;;;1.54;60.68;100368.06;8231742;28;20048;-88
2021/12/03 05:42:56;;;;;;;1.23;1.10;;;3.30;55.00;;;1.50;60.90;100363.88;8231957;28;20038;-87
2021/12/03 05:47:18;;;;;;;2.33;1.20;;;3.30;55.00;;;1.44;60.73;100358.88;8230597;28;20219;-88
2021/12/03 05:51:40;;;;;;;1.83;1.05;;;3.40;55.00;;;1.50;60.64;100369.00;8232067;28;20046;-88
2021/12/03 05:56:02;;;;;;;1.80;1.27;;;3.40;55.00;;;1.45;60.53;100351.09;8240249;28;20129;-89
2021/12/03 06:00:36;;;;;;;1.30;1.10;;;3.40;55.00;;;1.50;60.57;100367.28;8249649;28;20043;-87
2021/12/03 06:04:58;;;;;;;1.20;0.98;;;3.40;55.00;;;1.58;60.38;100386.84;8234478;28;20068;-86
2021/12/03 06:09:20;;;;;;;3.95;1.38;;;3.70;55.10;;;1.47;60.55;100375.06;8250092;28;20650;-86
2021/12/03 06:13:41;;;;;;;1.45;1.27;;;3.40;55.00;;;1.38;60.69;100362.44;8252583;28;20117;-86
2021/12/03 06:18:03;;;;;;;1.83;1.20;;;3.50;55.00;;;1.51;60.46;100387.00;8246570;28;20030;-87
2021/12/03 06:22:25;;;;;;;1.65;1.13;;;3.40;54.90;;;1.49;60.57;100391.34;8248062;28;20038;-87
2021/12/03 06:26:47;;;;;;;2.88;1.35;;;3.40;54.90;;;1.58;60.55;100408.28;8234938;28;20137;-86
2021/12/03 06:31:09;;;;;;;1.75;1.10;;;3.30;54.90;;;1.55;60.91;100404.03;8229567;28;20129;-86
2021/12/03 06:35:30;;;;;;;4.55;1.58;;;3.50;55.00;;;1.56;60.67;100412.59;8235054;28;20129;-85
2021/12/03 06:39:52;;;;;;;3.72;1.38;;;3.50;55.00;;;1.65;60.50;100421.88;8259278;28;20050;-86
2021/12/03 06:44:14;;;;;;;1.33;0.95;;;3.30;54.90;;;1.63;60.18;100409.03;8251038;28;20137;-85
2021/12/03 06:48:35;;;;;;;2.58;1.40;;;3.40;54.90;;;1.67;60.41;100425.22;8249210;28;20468;-85
2021/12/03 06:53:03;;;;;;;2.45;1.25;;;3.50;54.90;;;1.66;60.61;100421.81;8243797;28;20057;-85
2021/12/03 06:57:25;;;;;;;0.98;0.90;;;3.50;54.90;;;1.68;60.44;100419.22;8232690;28;20555;-86
2021/12/03 07:01:48;;;;;;;1.70;1.00;;;3.50;55.00;;;1.62;60.52;100407.34;8246180;28;20038;-83
2021/12/03 07:06:12;;;;;;;1.25;1.15;;;3.50;55.00;;;1.54;60.64;100401.53;8247497;28;20046;-85
2021/12/03 07:10:35;;;;;;;3.67;1.40;;;3.50;55.00;;;1.55;60.63;100390.34;8246830;28;20038;-84
2021/12/03 07:14:58;;;;;;;2.20;1.45;;;3.50;55.00;;;1.61;60.69;100415.91;8235056;28;20038;-82
2021/12/03 07:19:20;;;;;;;1.42;1.08;;;3.50;55.00;;;1.63;60.68;100418.47;8233214;28;20054;-84
2021/12/03 07:23:42;;;;;;;1.90;1.60;;;3.50;55.00;;;1.70;60.87;100444.03;8250128;28;20060;-86
2021/12/03 07:28:04;;;;;;;2.00;1.48;;;3.40;54.90;;;1.68;60.47;100440.66;8249655;28;20125;-84
2021/12/03 07:32:27;;;;;;;4.65;1.40;;;3.60;55.00;;;1.79;60.42;100460.16;8235551;28;20137;-85
2021/12/03 07:36:48;;;;;;;1.63;1.35;;;3.60;55.40;;;1.72;60.52;100449.13;8261556;28;20144;-84
2021/12/03 07:41:10;;;;;;;2.08;1.58;;;3.70;55.10;;;1.76;60.61;100454.19;8253415;28;20065;-85
2021/12/03 07:45:32;;;;;;;2.20;1.55;;;3.60;55.10;;;1.81;60.57;100466.94;8238154;28;20037;-84
2021/12/03 07:49:54;;;;;;;3.75;1.85;;;3.70;55.10;;;1.73;60.53;100454.25;8244553;28;20042;-84
2021/12/03 07:54:15;;;;;;;3.38;1.27;;;3.70;55.10;;;1.82;60.59;100467.78;8244307;28;20563;-84
2021/12/03 07:58:37;;;;;;;4.97;1.73;;;3.70;55.20;;;1.78;60.77;100459.28;8263295;28;20465;-86
2021/12/03 08:02:59;;;;;;;2.25;1.30;;;3.70;55.10;;;1.97;61.04;100480.28;8238707;28;20050;-88
2021/12/03 08:07:22;;;;;;;2.65;1.98;;;3.80;55.20;;;1.87;60.74;100459.06;8234199;28;20049;-85
2021/12/03 08:11:44;;;;;;;3.17;1.75;;;3.90;55.20;;;1.92;60.75;100462.38;8248930;28;20125;-85
2021/12/03 08:16:06;;;;;;;2.20;1.50;;;3.90;55.30;;;2.02;60.83;100469.88;8247667;28;20125;-85
2021/12/03 08:20:28;;;;;;;1.60;1.50;;;4.00;55.30;;;2.04;60.80;100456.09;8235372;28;20405;-85
2021/12/03 08:25:20;;;;;;;1.85;1.60;;;4.00;55.30;;;2.26;61.26;100495.03;8247972;28;20400;-87
2021/12/03 08:29:51;;;;;;;2.78;1.67;;;4.10;55.30;;;2.21;60.99;100478.84;8246029;28;20038;-86
2021/12/03 08:34:13;;;;;;;2.17;1.85;;;4.10;55.30;;;2.33;60.70;100493.16;8246051;28;20584;-86
2021/12/03 08:38:35;;;;;;;2.10;1.80;;;4.20;55.30;;;2.45;61.31;100510.88;8245012;28;20132;-86
2021/12/03 08:42:57;;;;;;;2.85;1.77;;;4.20;55.30;;;2.35;60.88;100487.09;8253230;28;20050;-87
2021/12/03 08:47:19;;;;;;;2.58;1.73;;;4.30;55.20;;;2.40;61.00;100484.38;8241861;28;20045;-86
2021/12/03 08:56:03;;;;;;;1.88;1.55;;;4.40;55.20;;;2.58;60.93;100514.84;8232389;28;20053;-85
2021/12/03 09:00:24;;;;;;;4.32;1.80;;;4.50;55.20;;;2.68;60.91;100519.78;8237130;28;20054;-86
2021/12/03 09:04:47;;;;;;;1.55;1.45;;;4.50;55.20;;;2.66;61.08;100515.50;8235748;28;20048;-86
2021/12/03 09:09:09;;;;;;;2.35;1.80;;;4.50;55.20;;;2.65;60.70;100506.06;8246975;28;20125;-89
2021/12/03 09:13:31;;;;;;;1.65;1.33;;;4.60;55.20;;;2.80;60.78;100527.19;8231482;28;20486;-86
2021/12/03 09:18:11;;;;;;;2.65;1.35;;;4.60;55.10;;;2.87;60.84;100526.13;8244203;28;20045;-87
2021/12/03 09:22:53;;;;;;;3.92;1.50;;;4.70;55.10;;;2.81;60.93;100511.69;8233874;28;20049;-86
2021/12/03 09:27:16;;;;;;;1.73;1.40;;;4.70;55.10;;;2.86;61.03;100514.09;8250863;28;20444;-86
2021/12/03 09:31:44;;;;;;;4.38;1.50;;;4.80;55.10;;;2.78;60.93;100488.56;8235655;28;20133;-86
2021/12/03 09:36:08;;;;;;;3.28;1.40;;;4.80;55.10;;;3.02;60.85;100517.97;8233472;28;20149;-86
2021/12/03 09:40:31;;;;;;;1.70;1.23;;;4.80;55.10;;;2.97;61.12;100506.97;8240062;28;20060;-86
2021/12/03 09:44:53;;;;;;;2.58;1.45;;;4.90;55.10;;;3.01;60.61;100507.72;8237201;28;20048;-86
2021/12/03 09:54:32;;;;;;;3.05;1.70;;;5.00;55.00;;;3.25;60.67;100521.66;8177422;28;20053;-87
2021/12/03 09:59:26;;;;;;;3.72;1.65;;;5.10;55.00;;;3.18;60.75;100490.00;8241413;28;20129;-88
2021/12/03 10:03:45;;;;;;;2.15;1.50;;;5.10;55.00;;;3.40;60.97;100508.28;8236349;28;20051;-86
2021/12/03 10:13:02;;;;;;;1.30;1.20;;;5.30;55.00;;;3.50;61.02;100485.66;8238323;28;20054;-86
2021/12/03 10:17:36;;;;;;;1.27;1.17;;;5.40;55.00;;;3.68;61.10;100504.91;8240899;28;20057;-84
2021/12/03 10:22:29;;;;;;;1.55;1.45;;;5.40;54.90;;;3.77;60.86;100502.03;8254950;28;20072;-85
2021/12/03 10:45:21;;;;;;;1.60;1.50;;;5.80;54.40;;;3.92;60.72;100483.50;8261466;28;20092;-88
2021/12/03 10:49:50;;;;;;;;;;;5.90;54.40;;;4.05;60.40;100490.84;8249578;28;20133;-82
2021/12/03 10:54:43;;;;;;;2.00;1.80;;;5.90;54.40;;;4.17;60.56;100498.22;8257488;28;20004;-82
2021/12/03 10:59:36;;;;;;;1.45;1.35;;;6.00;54.30;;;4.03;60.78;100480.56;8236515;28;20122;-84
2021/12/03 11:14:14;;;;;;;2.58;1.83;;;6.10;54.20;;;4.37;60.49;100490.63;8295156;28;20056;-81
2021/12/03 11:28:34;;;;;;;2.72;2.10;;;6.30;54.20;;;4.44;60.39;100475.78;8277550;28;20030;-82
2021/12/03 11:52:04;;;;;;;2.80;2.00;;;6.40;54.20;;;4.55;60.33;100467.66;8274617;28;20132;-82
2021/12/03 12:20:11;;;;;;;2.42;1.88;;;6.60;54.30;;;4.81;60.50;100484.84;8260328;28;20144;-85
2021/12/03 12:34:52;;;;;;;2.50;2.15;;;6.70;54.00;;;4.89;60.40;100469.91;8261451;28;20491;-84
2021/12/03 12:39:51;;;;;;;3.60;2.35;;;6.70;54.10;;;4.93;59.97;100474.06;8269293;28;20602;-84
2021/12/03 13:12:35;;;;;;;2.58;2.28;;;6.70;54.00;;;4.95;60.11;100455.91;8283243;28;20136;-83
2021/12/03 13:43:49;;;;;;;2.55;2.20;;;6.60;53.70;;;4.88;59.80;100471.63;8279058;28;20137;-83
2021/12/03 14:05:02;;;;;;;3.30;2.97;;;6.50;54.00;;;4.82;59.71;100464.09;8273291;28;20567;-82
2021/12/03 14:29:52;;;;;;;4.63;3.25;;;6.50;54.00;;;4.75;59.76;100469.53;8263691;28;20125;-83
2021/12/03 14:47:01;;;;;;;5.05;3.28;;;6.30;54.10;;;4.59;59.86;100446.81;8254494;28;20133;-82
2021/12/03 14:55:33;;;;;;;7.35;3.78;;;6.30;54.10;;;4.55;59.82;100446.97;8273774;28;20141;-82
2021/12/03 15:00:10;;;;;;;5.68;3.78;;;6.30;54.20;;;4.55;59.57;100454.72;8244789;28;20052;-82
2021/12/03 15:04:57;;;;;;;3.40;3.00;;;6.30;54.20;;;4.55;60.00;100446.97;8268088;28;20037;-83
2021/12/03 15:09:28;;;;;;;4.82;3.33;;;6.30;54.30;;;4.55;59.86;100452.13;8261626;28;20563;-83
2021/12/03 15:23:27;;;;;;;4.85;3.83;;;6.30;54.40;;;4.53;59.59;100439.25;8246935;28;20052;-81
2021/12/03 15:28:22;;;;;;;3.90;3.42;;;6.30;54.30;;;4.58;59.74;100428.75;8263443;28;20121;-82
2021/12/03 15:33:07;;;;;;;4.20;3.00;;;6.30;54.40;;;4.60;59.81;100435.56;8270679;28;20129;-82
2021/12/03 15:37:46;;;;;;;4.10;2.90;;;6.30;54.40;;;4.54;59.87;100424.59;8275299;28;20125;-82
2021/12/03 16:14:46;;;;;;;3.58;2.67;;;6.30;54.20;;;4.61;59.92;100406.19;8271672;28;20293;-83
2021/12/03 16:46:57;;;;;;;4.05;2.67;;;6.30;54.30;;;4.58;59.90;100369.28;8276081;28;20049;-82
2021/12/03 16:51:27;;;;;;;3.30;2.83;;;6.20;54.10;;;4.47;59.54;100364.50;8256651;28;20125;-83
2021/12/03 16:56:07;;;;;;;4.30;2.05;;;6.30;54.20;;;4.48;59.90;100350.66;8277373;28;20137;-83
2021/12/03 17:00:35;;;;;;;4.35;2.28;;;6.30;54.20;;;4.50;59.83;100345.44;8272722;28;20145;-85
2021/12/03 17:24:47;;;;;;;3.22;2.45;;;6.10;54.10;;;4.26;60.02;100329.91;8204080;28;20292;-92
2021/12/03 17:51:01;;;;;;;5.80;2.38;;;6.10;54.10;;;3.96;59.65;100277.56;8274605;28;20128;-88
2021/12/03 17:56:11;;;;;;;3.47;2.67;;;6.20;54.10;;;4.13;59.83;100298.50;8291207;28;20658;-93
2021/12/03 18:00:46;;;;;;;2.70;2.47;;;6.20;54.00;;;4.25;59.97;100312.72;8260449;28;20578;-92
2021/12/03 18:09:57;;;;;;;5.05;3.03;;;6.30;54.20;;;4.60;59.91;100344.22;8261444;28;20496;-81
2021/12/03 18:51:44;;;;;;;3.85;2.78;;;6.20;54.20;;;4.51;59.80;100269.56;8267578;28;20046;-80
2021/12/03 18:56:16;;;;;;;3.72;3.17;;;6.20;54.20;;;4.44;59.52;100254.28;8256492;28;20042;-81
2021/12/03 19:00:45;;;;;;;5.65;2.88;;;6.20;54.20;;;4.44;59.59;100243.94;8251568;28;20700;-81
2021/12/03 19:09:52;;;;;;;4.18;2.72;;;6.20;54.20;;;4.34;59.92;100206.41;8277270;28;20498;-82
2021/12/03 19:14:14;;;;;;;7.47;3.70;;;6.20;54.20;;;4.46;59.59;100223.22;8259118;28;20049;-80
2021/12/03 19:18:36;;;;;;;4.45;3.30;;;6.10;54.00;;;4.46;59.92;100224.97;8261670;28;20795;-81
2021/12/03 19:22:58;;;;;;;6.15;3.20;;;6.10;54.10;;;4.40;59.90;100213.09;8260598;28;20049;-81
2021/12/03 19:27:24;;;;;;;3.60;3.30;;;6.00;54.10;;;4.42;59.85;100217.28;8267127;28;20045;-79
2021/12/03 19:31:50;;;;;;;;;;;6.10;54.10;;;4.38;59.67;100205.41;8269117;28;20053;-81
2021/12/03 19:36:19;;;;;;;3.08;2.60;;;6.10;54.10;;;4.36;59.87;100207.19;8246356;28;19924;-82
2021/12/03 19:40:50;;;;;;;3.80;2.97;;;6.10;54.10;;;4.35;59.70;100195.19;8284901;28;20067;-82
2021/12/03 19:45:21;;;;;;;4.93;3.70;;;6.10;54.00;;;4.36;59.83;100206.38;8254359;28;20048;-80
2021/12/03 19:54:07;;;;;;;6.35;3.30;;;6.00;53.80;;;4.37;59.54;100187.34;8250553;28;20052;-82
2021/12/03 19:58:29;;;;;;;4.10;3.58;;;6.10;54.00;;;4.41;59.83;100191.53;8244582;28;20488;-82
2021/12/03 20:02:51;;;;;;;3.85;3.20;;;6.20;53.90;;;4.40;59.90;100182.94;8267660;28;20391;-80
2021/12/03 20:07:15;;;;;;;3.60;3.22;;;6.10;53.90;;;4.43;59.71;100187.16;8257562;28;20054;-80
2021/12/03 20:11:48;;;;;;;4.20;3.80;;;6.10;53.80;;;4.39;59.40;100183.81;8255008;28;20045;-81
2021/12/03 20:16:28;;;;;;;3.70;3.00;;;6.10;53.80;;;4.39;59.66;100181.22;8249404;28;20049;-82
2021/12/03 20:20:50;;;;;;;4.97;3.67;;;6.10;53.80;;;4.42;59.64;100170.75;8248268;28;20052;-80
2021/12/03 20:38:53;;;;;;;4.53;2.80;;;6.10;53.60;;;4.45;59.47;100159.47;8276875;28;20060;-82
2021/12/03 20:43:30;;;;;;;3.28;2.67;;;6.10;53.70;;;4.46;59.27;100150.81;8263456;28;20056;-81
2021/12/03 20:53:03;;;;;;;4.90;2.38;;;6.20;53.60;;;4.29;59.48;100115.28;8273161;28;20038;-81
2021/12/03 20:57:46;;;;;;;2.97;2.58;;;6.10;53.70;;;4.48;59.82;100138.66;8278959;28;20052;-82
2021/12/03 21:11:34;;;;;;;2.83;2.55;;;6.20;53.80;;;4.40;59.40;100109.69;8293164;28;20481;-81
2021/12/03 21:16:08;;;;;;;4.00;2.13;;;6.10;53.70;;;4.37;59.34;100099.47;8281388;28;20038;-81
2021/12/03 21:20:34;;;;;;;4.45;2.70;;;6.10;53.90;;;4.34;59.30;100091.84;8289763;28;20060;-82
2021/12/03 21:25:00;;;;;;;3.35;2.90;;;6.10;54.00;;;4.32;59.47;100096.22;8274787;28;20607;-82
2021/12/03 21:38:48;;;;;;;2.83;2.63;;;6.10;54.50;;;4.24;59.42;100070.72;8288555;28;20038;-82
2021/12/03 21:43:10;;;;;;;4.28;3.13;;;6.00;54.50;;;4.23;59.76;100076.75;8256303;28;20041;-81
2021/12/03 21:47:32;;;;;;;3.58;2.40;;;6.00;54.70;;;4.22;59.52;100062.16;8259703;28;20041;-79
2021/12/03 21:51:54;;;;;;;2.47;2.35;;;6.00;54.80;;;4.26;59.52;100074.06;8271143;28;20038;-81
2021/12/03 21:56:17;;;;;;;2.85;2.55;;;5.90;54.80;;;4.27;59.34;100075.75;8270407;28;20051;-79
2021/12/03 22:00:41;;;;;;;3.28;2.70;;;6.00;54.90;;;4.26;59.91;100058.53;8259881;28;20042;-81
2021/12/03 22:05:04;;;;;;;3.75;3.33;;;5.90;54.80;;;4.16;60.24;100042.59;8286754;28;20038;-82
2021/12/03 22:09:25;;;;;;;3.00;2.42;;;6.00;54.90;;;4.29;59.99;100050.66;8269441;28;20049;-83
2021/12/03 22:13:47;;;;;;;4.60;3.03;;;5.90;54.80;;;4.32;59.90;100036.78;8259541;28;20057;-81
2021/12/03 22:18:09;;;;;;;3.95;2.30;;;6.00;54.90;;;4.30;59.63;100020.53;8265490;28;20584;-80
2021/12/03 22:22:31;;;;;;;2.50;2.10;;;6.00;54.90;;;4.33;59.76;100022.97;8272343;28;20402;-81
2021/12/03 22:26:52;;;;;;;3.10;2.13;;;6.00;54.90;;;4.33;59.76;100018.63;8276742;28;20048;-82
2021/12/03 22:31:14;;;;;;;3.08;1.95;;;6.00;54.90;;;4.30;59.63;100008.44;8272626;28;20041;-80
2021/12/03 22:35:36;;;;;;;3.13;1.88;;;6.00;54.80;;;4.38;59.89;100021.03;8276677;28;20038;-79
2021/12/03 22:40:00;;;;;;;2.17;1.95;;;6.10;54.90;;;4.38;59.91;100027.06;8267000;28;20042;-80
2021/12/03 22:44:22;;;;;;;4.05;2.30;;;6.10;55.00;;;4.39;59.82;100012.38;8272778;28;20437;-80
2021/12/03 22:48:47;;;;;;;1.90;1.65;;;6.10;55.00;;;4.34;59.96;100012.56;8276249;28;20041;-79
2021/12/03 22:53:08;;;;;;;2.53;1.73;;;6.10;55.10;;;4.10;59.68;99972.22;8266980;28;20160;-79
2021/12/03 22:57:30;;;;;;;2.85;2.38;;;6.10;55.20;;;4.31;59.95;100004.94;8287873;28;20132;-78
2021/12/03 23:01:52;;;;;;;2.30;2.08;;;6.00;55.30;;;4.28;59.79;99997.31;8290843;28;20529;-77
2021/12/03 23:06:14;;;;;;;2.13;1.95;;;6.00;55.40;;;4.31;60.14;100004.09;8294843;28;20049;-76
2021/12/03 23:10:36;;;;;;;2.78;2.38;;;6.00;55.50;;;4.20;59.79;99986.44;8298409;28;20156;-77
2021/12/03 23:14:58;;;;;;;3.20;2.20;;;6.00;55.70;;;4.23;60.12;99991.50;8292569;28;20161;-75
2021/12/03 23:19:21;;;;;;;3.53;2.58;;;5.90;55.70;;;4.15;60.04;99970.28;8297615;28;20136;-79
2021/12/03 23:23:44;;;;;;;3.35;2.50;;;5.90;55.70;;;4.18;60.05;99975.31;8285464;28;20056;-76
2021/12/03 23:28:06;;;;;;;3.83;2.75;;;5.90;55.90;;;4.15;60.23;99967.72;8280218;28;20140;-78
2021/12/03 23:32:28;;;;;;;2.25;2.00;;;5.80;56.40;;;4.20;60.45;99976.13;8284823;28;20494;-78
2021/12/03 23:36:51;;;;;;;2.50;2.30;;;5.90;56.00;;;4.18;60.41;99972.75;8293755;28;20140;-77
2021/12/03 23:41:12;;;;;;;3.78;2.22;;;5.80;56.00;;;4.17;60.30;99971.06;8274302;28;20520;-77
2021/12/03 23:45:36;;;;;;;3.20;2.05;;;5.80;55.90;;;4.15;60.51;99975.47;8312900;28;20060;-77
2021/12/03 23:49:57;;;;;;;3.80;2.95;;;5.80;56.00;;;4.14;60.30;99977.22;8293076;28;20121;-80
2021/12/03 23:54:27;;;;;;;3.22;2.63;;;5.80;56.20;;;4.05;60.58;99958.66;8299051;28;20566;-78
2021/12/03 23:58:50;;;;;;;2.88;2.30;;;5.70;56.20;;;3.95;60.32;99953.03;8304858;28;20514;-79
